createdAt,value
2019-05-19T00:01:12.205Z,94132.00
2019-05-19T00:03:42.764Z,94123.00
2019-05-19T00:06:13.216Z,94123.00
2019-05-19T00:08:43.888Z,94119.00
2019-05-19T00:11:15.561Z,94124.00
2019-05-19T00:13:46.280Z,94121.00
2019-05-19T00:16:16.809Z,94117.00
2019-05-19T00:18:47.292Z,94114.00
2019-05-19T00:21:17.828Z,94123.00
2019-05-19T00:23:48.294Z,94121.00
2019-05-19T00:26:18.778Z,94122.00
2019-05-19T00:28:49.309Z,94114.00
2019-05-19T00:31:19.942Z,94113.00
2019-05-19T00:33:50.468Z,94114.00
2019-05-19T00:36:21.153Z,94113.00
2019-05-19T00:38:51.721Z,94111.00
2019-05-19T00:41:22.240Z,94101.00
2019-05-19T00:43:52.984Z,94103.00
2019-05-19T00:46:23.783Z,94112.00
2019-05-19T00:48:54.232Z,94112.00
2019-05-19T00:51:25.194Z,94109.00
2019-05-19T00:53:55.678Z,94111.00
2019-05-19T00:56:27.240Z,94118.00
2019-05-19T00:59:00.202Z,94120.00
2019-05-19T01:01:30.831Z,94127.00
2019-05-19T01:04:01.513Z,94129.00
2019-05-19T01:06:34.999Z,94125.00
2019-05-19T01:09:07.589Z,94117.00
2019-05-19T01:11:38.094Z,94124.00
2019-05-19T01:14:08.717Z,94113.00
2019-05-19T01:16:39.214Z,94116.00
2019-05-19T01:19:09.960Z,94120.00
2019-05-19T01:21:41.922Z,94126.00
2019-05-19T01:24:16.203Z,94122.00
2019-05-19T01:26:46.707Z,94127.00
2019-05-19T01:29:17.225Z,94121.00
2019-05-19T01:31:47.677Z,94125.00
2019-05-19T01:34:18.171Z,94126.00
2019-05-19T01:36:48.666Z,94127.00
2019-05-19T01:39:19.247Z,94115.00
2019-05-19T01:41:49.947Z,94126.00
2019-05-19T01:44:20.405Z,94123.00
2019-05-19T01:46:51.011Z,94124.00
2019-05-19T01:49:21.565Z,94128.00
2019-05-19T01:51:52.158Z,94135.00
2019-05-19T01:54:22.611Z,94117.00
2019-05-19T01:56:53.184Z,94128.00
2019-05-19T01:59:23.732Z,94137.00
2019-05-19T02:01:54.673Z,94131.00
2019-05-19T02:04:25.132Z,94137.00
2019-05-19T02:06:56.491Z,94136.00
2019-05-19T02:09:26.917Z,94143.00
2019-05-19T02:11:57.495Z,94146.00
2019-05-19T02:14:27.945Z,94137.00
2019-05-19T02:16:58.414Z,94129.00
2019-05-19T02:19:28.856Z,94135.00
2019-05-19T02:21:59.315Z,94127.00
2019-05-19T02:24:29.867Z,94151.00
2019-05-19T02:27:01.549Z,94148.00
2019-05-19T02:29:32.173Z,94137.00
2019-05-19T02:32:02.922Z,94151.00
2019-05-19T02:34:33.368Z,94145.00
2019-05-19T02:37:03.990Z,94148.00
2019-05-19T02:39:34.445Z,94151.00
2019-05-19T02:42:07.542Z,94148.00
2019-05-19T02:44:40.140Z,94153.00
2019-05-19T02:47:14.581Z,94148.00
2019-05-19T02:49:46.730Z,94153.00
2019-05-19T02:52:19.411Z,94144.00
2019-05-19T02:54:51.404Z,94142.00
2019-05-19T02:57:23.572Z,94144.00
2019-05-19T02:59:54.928Z,94138.00
2019-05-19T03:02:25.406Z,94139.00
2019-05-19T03:04:56.265Z,94136.00
2019-05-19T03:07:27.089Z,94141.00
2019-05-19T03:09:59.878Z,94145.00
2019-05-19T03:12:30.540Z,94154.00
2019-05-19T03:15:01.122Z,94154.00
2019-05-19T03:17:31.629Z,94149.00
2019-05-19T03:20:02.103Z,94149.00
2019-05-19T03:22:32.591Z,94149.00
2019-05-19T03:25:03.114Z,94162.00
2019-05-19T03:27:35.839Z,94155.00
2019-05-19T03:30:25.341Z,94150.00
2019-05-19T03:32:59.941Z,94156.00
2019-05-19T03:35:30.399Z,94158.00
2019-05-19T03:38:01.160Z,94161.00
2019-05-19T03:40:33.810Z,94157.00
2019-05-19T03:43:04.460Z,94161.00
2019-05-19T03:45:35.005Z,94162.00
2019-05-19T03:48:05.455Z,94162.00
2019-05-19T03:50:36.349Z,94161.00
2019-05-19T03:53:07.176Z,94171.00
2019-05-19T03:55:37.699Z,94165.00
2019-05-19T03:58:08.166Z,94166.00
2019-05-19T04:00:38.661Z,94171.00
2019-05-19T04:03:09.477Z,94162.00
2019-05-19T04:05:42.317Z,94161.00
2019-05-19T04:08:12.808Z,94170.00
2019-05-19T04:10:43.344Z,94164.00
2019-05-19T04:13:16.389Z,94161.00
2019-05-19T04:15:46.850Z,94163.00
2019-05-19T04:18:17.390Z,94154.00
2019-05-19T04:20:48.185Z,94165.00
2019-05-19T04:23:18.650Z,94180.00
2019-05-19T04:25:49.152Z,94179.00
2019-05-19T04:28:23.702Z,94180.00
2019-05-19T04:30:54.309Z,94178.00
2019-05-19T04:33:24.811Z,94185.00
2019-05-19T04:35:57.539Z,94188.00
2019-05-19T04:38:27.515Z,94191.00
2019-05-19T04:40:57.976Z,94183.00
2019-05-19T04:43:36.186Z,94185.00
2019-05-19T04:46:06.370Z,94185.00
2019-05-19T04:48:36.866Z,94197.00
2019-05-19T04:51:07.358Z,94186.00
2019-05-19T04:53:37.866Z,94194.00
2019-05-19T04:56:09.554Z,94202.00
2019-05-19T04:58:40.254Z,94197.00
2019-05-19T05:01:10.803Z,94196.00
2019-05-19T05:03:41.481Z,94195.00
2019-05-19T05:06:12.093Z,94190.00
2019-05-19T05:08:42.612Z,94187.00
2019-05-19T05:11:15.300Z,94196.00
2019-05-19T05:13:48.594Z,94191.00
2019-05-19T05:16:19.112Z,94192.00
2019-05-19T05:18:49.608Z,94197.00
2019-05-19T05:21:20.516Z,94195.00
2019-05-19T05:23:50.945Z,94199.00
2019-05-19T05:26:21.595Z,94189.00
2019-05-19T05:29:00.808Z,94205.00
2019-05-19T05:31:31.453Z,94199.00
2019-05-19T05:34:02.017Z,94207.00
2019-05-19T05:36:32.511Z,94204.00
2019-05-19T05:39:03.348Z,94211.00
2019-05-19T05:41:33.782Z,94193.00
2019-05-19T05:44:05.223Z,94201.00
2019-05-19T05:46:36.678Z,94194.00
2019-05-19T05:49:07.726Z,94194.00
2019-05-19T05:51:38.191Z,94192.00
2019-05-19T05:54:08.901Z,94187.00
2019-05-19T05:56:39.327Z,94199.00
2019-05-19T05:59:09.833Z,94194.00
2019-05-19T06:01:42.212Z,94188.00
2019-05-19T06:04:13.545Z,94187.00
2019-05-19T06:06:45.885Z,94181.00
2019-05-19T06:09:18.722Z,94180.00
2019-05-19T06:11:49.202Z,94176.00
2019-05-19T06:14:19.820Z,94186.00
2019-05-19T06:16:51.638Z,94189.00
2019-05-19T06:19:22.282Z,94183.00
2019-05-19T06:21:52.754Z,94189.00
2019-05-19T06:24:23.392Z,94186.00
2019-05-19T06:26:53.879Z,94199.00
2019-05-19T06:29:24.655Z,94189.00
2019-05-19T06:31:59.133Z,94192.00
2019-05-19T06:34:29.833Z,94192.00
2019-05-19T06:37:00.663Z,94187.00
2019-05-19T06:39:31.111Z,94182.00
2019-05-19T06:42:01.804Z,94193.00
2019-05-19T06:44:32.479Z,94195.00
2019-05-19T06:47:02.970Z,94197.00
2019-05-19T06:49:33.584Z,94202.00
2019-05-19T06:52:04.279Z,94186.00
2019-05-19T06:54:34.840Z,94188.00
2019-05-19T06:57:05.372Z,94184.00
2019-05-19T06:59:35.867Z,94182.00
2019-05-19T07:02:06.549Z,94176.00
2019-05-19T07:04:37.204Z,94167.00
2019-05-19T07:07:07.729Z,94163.00
2019-05-19T07:09:38.240Z,94163.00
2019-05-19T07:12:08.757Z,94162.00
2019-05-19T07:14:39.541Z,94158.00
2019-05-19T07:17:11.185Z,94162.00
2019-05-19T07:19:41.789Z,94160.00
2019-05-19T07:22:12.418Z,94157.00
2019-05-19T07:24:42.881Z,94163.00
2019-05-19T07:27:13.469Z,94155.00
2019-05-19T07:29:44.045Z,94162.00
2019-05-19T07:32:15.167Z,94160.00
2019-05-19T07:34:46.161Z,94158.00
2019-05-19T07:37:16.671Z,94160.00
2019-05-19T07:39:47.771Z,94165.00
2019-05-19T07:42:18.305Z,94157.00
2019-05-19T07:44:50.473Z,94161.00
2019-05-19T07:47:21.705Z,94158.00
2019-05-19T07:49:52.189Z,94166.00
2019-05-19T07:52:23.485Z,94178.00
2019-05-19T07:54:54.664Z,94176.00
2019-05-19T07:57:25.742Z,94164.00
2019-05-19T07:59:56.611Z,94167.00
2019-05-19T08:02:27.123Z,94165.00
2019-05-19T08:04:57.783Z,94171.00
2019-05-19T08:07:28.307Z,94183.00
2019-05-19T08:09:58.865Z,94178.00
2019-05-19T08:12:29.371Z,94170.00
2019-05-19T08:14:59.824Z,94187.00
2019-05-19T08:17:30.342Z,94180.00
2019-05-19T08:20:00.982Z,94187.00
2019-05-19T08:22:31.769Z,94190.00
2019-05-19T08:25:02.459Z,94190.00
2019-05-19T08:27:33.337Z,94186.00
2019-05-19T08:30:04.997Z,94189.00
2019-05-19T08:32:36.104Z,94181.00
2019-05-19T08:35:07.104Z,94182.00
2019-05-19T08:37:38.121Z,94167.00
2019-05-19T08:40:09.129Z,94168.00
2019-05-19T08:42:39.616Z,94166.00
2019-05-19T08:45:11.230Z,94166.00
2019-05-19T08:47:41.772Z,94169.00
2019-05-19T08:50:12.591Z,94177.00
2019-05-19T08:52:43.634Z,94169.00
2019-05-19T08:55:15.736Z,94178.00
2019-05-19T08:57:46.373Z,94165.00
2019-05-19T09:00:17.117Z,94164.00
2019-05-19T09:03:09.537Z,94166.00
2019-05-19T09:05:41.676Z,94171.00
2019-05-19T09:08:12.210Z,94165.00
2019-05-19T09:10:43.810Z,94155.00
2019-05-19T09:13:14.551Z,94159.00
2019-05-19T09:15:45.070Z,94154.00
2019-05-19T09:18:15.679Z,94150.00
2019-05-19T09:20:46.186Z,94146.00
2019-05-19T09:23:17.459Z,94143.00
2019-05-19T09:25:48.361Z,94151.00
2019-05-19T09:28:19.034Z,94150.00
2019-05-19T09:30:57.306Z,94144.00
2019-05-19T09:33:27.859Z,94139.00
2019-05-19T09:36:00.464Z,94142.00
2019-05-19T09:38:31.022Z,94133.00
2019-05-19T09:41:01.550Z,94128.00
2019-05-19T09:43:37.077Z,94119.00
2019-05-19T09:46:08.414Z,94121.00
2019-05-19T09:48:39.341Z,94133.00
2019-05-19T09:51:09.914Z,94119.00
2019-05-19T09:53:40.709Z,94121.00
2019-05-19T09:56:11.198Z,94119.00
2019-05-19T09:58:42.147Z,94110.00
2019-05-19T10:01:13.140Z,94110.00
2019-05-19T10:03:46.682Z,94118.00
2019-05-19T10:06:17.574Z,94100.00
2019-05-19T10:09:00.332Z,94110.00
2019-05-19T10:12:05.952Z,94104.00
2019-05-19T10:14:36.768Z,94092.00
2019-05-19T10:17:07.401Z,94109.00
2019-05-19T10:19:38.020Z,94099.00
2019-05-19T10:22:09.877Z,94099.00
2019-05-19T10:24:40.384Z,94097.00
2019-05-19T10:27:13.446Z,94097.00
2019-05-19T10:29:44.510Z,94095.00
2019-05-19T10:32:15.015Z,94089.00
2019-05-19T10:34:45.514Z,94082.00
2019-05-19T10:37:17.145Z,94086.00
2019-05-19T10:39:47.696Z,94086.00
2019-05-19T10:42:18.175Z,94090.00
2019-05-19T10:44:48.706Z,94079.00
2019-05-19T10:47:19.194Z,94079.00
2019-05-19T10:49:49.674Z,94084.00
2019-05-19T10:52:20.197Z,94076.00
2019-05-19T10:54:51.163Z,94082.00
2019-05-19T10:57:24.927Z,94078.00
2019-05-19T10:59:55.482Z,94074.00
2019-05-19T11:02:25.997Z,94076.00
2019-05-19T11:04:56.533Z,94073.00
2019-05-19T11:07:27.299Z,94068.00
2019-05-19T11:09:57.744Z,94057.00
2019-05-19T11:12:30.104Z,94071.00
2019-05-19T11:15:00.585Z,94069.00
2019-05-19T11:17:31.102Z,94055.00
2019-05-19T11:20:02.080Z,94061.00
2019-05-19T11:22:32.931Z,94060.00
2019-05-19T11:25:03.499Z,94064.00
2019-05-19T11:27:34.216Z,94059.00
2019-05-19T11:30:05.482Z,94054.00
2019-05-19T11:32:39.474Z,94053.00
2019-05-19T11:35:11.243Z,94047.00
2019-05-19T11:37:41.925Z,94041.00
2019-05-19T11:40:13.043Z,94044.00
2019-05-19T11:42:46.764Z,94049.00
2019-05-19T11:45:16.244Z,94039.00
2019-05-19T11:47:46.880Z,94043.00
2019-05-19T11:50:17.887Z,94038.00
2019-05-19T11:52:48.434Z,94042.00
2019-05-19T11:55:18.980Z,94039.00
2019-05-19T11:57:49.523Z,94036.00
2019-05-19T12:00:21.523Z,94039.00
2019-05-19T12:02:52.211Z,94046.00
2019-05-19T12:05:23.121Z,94047.00
2019-05-19T12:07:53.670Z,94041.00
2019-05-19T12:10:24.409Z,94036.00
2019-05-19T12:12:55.133Z,94040.00
2019-05-19T12:15:26.097Z,94045.00
2019-05-19T12:17:58.560Z,94038.00
2019-05-19T12:20:29.378Z,94048.00
2019-05-19T12:23:00.004Z,94037.00
2019-05-19T12:25:32.389Z,94037.00
2019-05-19T12:28:03.073Z,94032.00
2019-05-19T12:30:34.786Z,94039.00
2019-05-19T12:33:05.366Z,94040.00
2019-05-19T12:35:35.958Z,94031.00
2019-05-19T12:38:06.573Z,94044.00
2019-05-19T12:40:37.101Z,94040.00
2019-05-19T12:43:08.681Z,94046.00
2019-05-19T12:45:39.184Z,94043.00
2019-05-19T12:48:09.690Z,94042.00
2019-05-19T12:50:40.220Z,94029.00
2019-05-19T12:53:10.746Z,94031.00
2019-05-19T12:55:41.283Z,94027.00
2019-05-19T12:58:12.055Z,94021.00
2019-05-19T13:00:42.544Z,94027.00
2019-05-19T13:03:13.233Z,94029.00
2019-05-19T13:05:43.829Z,94021.00
2019-05-19T13:08:14.919Z,94020.00
2019-05-19T13:10:45.511Z,94019.00
2019-05-19T13:13:15.993Z,94017.00
2019-05-19T13:15:46.535Z,94010.00
2019-05-19T13:18:17.455Z,94007.00
2019-05-19T13:20:47.932Z,94022.00
2019-05-19T13:23:18.468Z,94006.00
2019-05-19T13:25:49.068Z,94006.00
2019-05-19T13:28:20.604Z,93996.00
2019-05-19T13:30:52.000Z,94003.00
2019-05-19T13:33:22.531Z,93997.00
2019-05-19T13:35:53.134Z,94001.00
2019-05-19T13:38:23.718Z,93995.00
2019-05-19T13:40:56.120Z,93987.00
2019-05-19T13:43:27.812Z,93986.00
2019-05-19T13:45:58.690Z,93988.00
2019-05-19T13:48:29.182Z,93983.00
2019-05-19T13:50:59.700Z,93984.00
2019-05-19T13:53:31.268Z,93980.00
2019-05-19T13:56:02.201Z,93979.00
2019-05-19T13:58:32.709Z,93977.00
2019-05-19T14:01:03.540Z,93979.00
2019-05-19T14:03:34.279Z,93975.00
2019-05-19T14:06:05.328Z,93975.00
2019-05-19T14:08:35.912Z,93967.00
2019-05-19T14:11:08.861Z,93972.00
2019-05-19T14:13:39.344Z,93973.00
2019-05-19T14:16:11.105Z,93970.00
2019-05-19T14:18:41.604Z,93969.00
2019-05-19T14:21:15.152Z,93967.00
2019-05-19T14:23:46.182Z,93963.00
2019-05-19T14:26:16.689Z,93966.00
2019-05-19T14:28:47.166Z,93964.00
2019-05-19T14:31:17.776Z,93961.00
2019-05-19T14:33:48.702Z,93960.00
2019-05-19T14:36:19.591Z,93950.00
2019-05-19T14:39:05.286Z,93951.00
2019-05-19T14:41:39.708Z,93949.00
2019-05-19T14:44:10.242Z,93954.00
2019-05-19T14:46:41.244Z,93942.00
2019-05-19T14:49:11.734Z,93956.00
2019-05-19T14:51:43.332Z,93965.00
2019-05-19T14:54:14.219Z,93959.00
2019-05-19T14:56:44.993Z,93963.00
2019-05-19T14:59:16.076Z,93961.00
2019-05-19T15:01:46.563Z,93962.00
2019-05-19T15:04:17.125Z,93964.00
2019-05-19T15:06:47.981Z,93968.00
2019-05-19T15:09:20.076Z,93965.00
2019-05-19T15:11:50.802Z,93960.00
2019-05-19T15:14:22.088Z,93960.00
2019-05-19T15:16:52.640Z,93968.00
2019-05-19T15:19:24.408Z,93960.00
2019-05-19T15:21:55.230Z,93970.00
2019-05-19T15:24:25.776Z,93966.00
2019-05-19T15:26:56.410Z,93964.00
2019-05-19T15:29:26.873Z,93966.00
2019-05-19T15:31:58.426Z,93962.00
2019-05-19T15:34:29.759Z,93954.00
2019-05-19T15:37:00.767Z,93954.00
2019-05-19T15:39:32.258Z,93953.00
2019-05-19T15:42:04.171Z,93959.00
2019-05-19T15:44:34.680Z,93953.00
2019-05-19T15:47:08.598Z,93958.00
2019-05-19T15:49:45.450Z,93951.00
2019-05-19T15:52:16.003Z,93953.00
2019-05-19T15:54:51.815Z,93947.00
2019-05-19T15:57:22.855Z,93937.00
2019-05-19T15:59:53.566Z,93946.00
2019-05-19T16:02:24.088Z,93940.00
2019-05-19T16:04:54.798Z,93939.00
2019-05-19T16:07:25.352Z,93938.00
2019-05-19T16:09:55.847Z,93942.00
2019-05-19T16:12:26.500Z,93944.00
2019-05-19T16:14:57.007Z,93937.00
2019-05-19T16:17:27.549Z,93931.00
2019-05-19T16:19:58.060Z,93938.00
2019-05-19T16:22:28.567Z,93938.00
2019-05-19T16:24:59.057Z,93931.00
2019-05-19T16:27:30.002Z,93939.00
2019-05-19T16:30:01.375Z,93943.00
2019-05-19T16:32:32.378Z,93933.00
2019-05-19T16:35:04.686Z,93938.00
2019-05-19T16:37:35.525Z,93931.00
2019-05-19T16:40:08.689Z,93928.00
2019-05-19T16:42:41.134Z,93926.00
2019-05-19T16:45:16.265Z,93927.00
2019-05-19T16:47:47.661Z,93932.00
2019-05-19T16:50:19.486Z,93932.00
2019-05-19T16:52:49.958Z,93929.00
2019-05-19T16:55:32.559Z,93939.00
2019-05-19T16:58:02.764Z,93932.00
2019-05-19T17:00:33.345Z,93946.00
2019-05-19T17:03:04.089Z,93942.00
2019-05-19T17:05:34.632Z,93941.00
2019-05-19T17:08:05.224Z,93945.00
2019-05-19T17:10:35.797Z,93946.00
2019-05-19T17:13:06.334Z,93945.00
2019-05-19T17:15:36.835Z,93949.00
2019-05-19T17:18:09.635Z,93949.00
2019-05-19T17:20:40.203Z,93949.00
2019-05-19T17:23:10.994Z,93949.00
2019-05-19T17:25:42.961Z,93958.00
2019-05-19T17:28:13.537Z,93956.00
2019-05-19T17:30:44.868Z,93948.00
2019-05-19T17:33:16.583Z,93954.00
2019-05-19T17:35:47.569Z,93963.00
2019-05-19T17:38:18.120Z,93965.00
2019-05-19T17:40:48.600Z,93971.00
2019-05-19T17:43:19.157Z,93962.00
2019-05-19T17:45:49.759Z,93975.00
2019-05-19T17:48:26.403Z,93979.00
2019-05-19T17:50:53.925Z,93973.00
2019-05-19T17:53:26.849Z,93964.00
2019-05-19T17:55:59.568Z,93960.00
2019-05-19T17:58:31.704Z,93969.00
2019-05-19T18:01:02.538Z,93983.00
2019-05-19T18:03:40.246Z,93975.00
2019-05-19T18:06:11.211Z,93995.00
2019-05-19T18:08:42.023Z,93994.00
2019-05-19T18:11:12.670Z,94006.00
2019-05-19T18:13:43.657Z,94020.00
2019-05-19T18:16:21.563Z,94028.00
2019-05-19T18:18:52.159Z,94022.00
2019-05-19T18:21:22.772Z,94031.00
2019-05-19T18:23:53.648Z,94027.00
2019-05-19T18:26:24.181Z,94036.00
2019-05-19T18:28:55.628Z,94050.00
2019-05-19T18:31:31.893Z,94061.00
2019-05-19T18:34:05.089Z,94073.00
2019-05-19T18:36:35.904Z,94073.00
2019-05-19T18:39:07.562Z,94075.00
2019-05-19T18:41:38.500Z,94087.00
2019-05-19T18:44:09.145Z,94077.00
2019-05-19T18:46:40.017Z,94081.00
2019-05-19T18:49:11.135Z,94082.00
2019-05-19T18:51:44.240Z,94088.00
2019-05-19T18:54:15.307Z,94083.00
2019-05-19T18:56:51.085Z,94087.00
2019-05-19T18:59:21.805Z,94077.00
2019-05-19T19:02:00.710Z,94082.00
2019-05-19T19:04:31.619Z,94083.00
2019-05-19T19:07:04.555Z,94090.00
2019-05-19T19:09:35.133Z,94089.00
2019-05-19T19:12:06.944Z,94092.00
2019-05-19T19:14:38.492Z,94102.00
2019-05-19T19:17:10.870Z,94098.00
2019-05-19T19:19:41.570Z,94107.00
2019-05-19T19:22:12.472Z,94116.00
2019-05-19T19:24:43.326Z,94114.00
2019-05-19T19:27:14.287Z,94112.00
2019-05-19T19:30:01.948Z,94099.00
2019-05-19T19:32:19.718Z,94099.00
2019-05-19T19:34:50.322Z,94086.00
2019-05-19T19:37:20.891Z,94076.00
2019-05-19T19:39:52.036Z,94069.00
2019-05-19T19:42:30.492Z,94061.00
2019-05-19T19:45:01.433Z,94071.00
2019-05-19T19:47:32.038Z,94061.00
2019-05-19T19:50:02.608Z,94066.00
2019-05-19T19:52:42.456Z,94069.00
2019-05-19T19:55:15.277Z,94079.00
2019-05-19T19:57:46.371Z,94101.00
2019-05-19T20:00:58.160Z,94121.00
2019-05-19T20:03:30.566Z,94131.00
2019-05-19T20:06:01.456Z,94132.00
2019-05-19T20:08:32.530Z,94127.00
2019-05-19T20:11:05.012Z,94123.00
2019-05-19T20:13:43.555Z,94097.00
2019-05-19T20:16:20.683Z,94089.00
2019-05-19T20:19:07.358Z,94070.00
2019-05-19T20:21:39.624Z,94065.00
2019-05-19T20:24:18.665Z,94064.00
2019-05-19T20:26:49.856Z,94076.00
2019-05-19T20:29:21.832Z,94076.00
2019-05-19T20:32:00.286Z,94085.00
2019-05-19T20:34:31.002Z,94088.00
2019-05-19T20:37:01.588Z,94096.00
2019-05-19T20:39:32.436Z,94094.00
2019-05-19T20:42:03.038Z,94109.00
2019-05-19T20:44:33.634Z,94107.00
2019-05-19T20:47:04.514Z,94114.00
2019-05-19T20:49:35.111Z,94111.00
2019-05-19T20:52:05.734Z,94116.00
2019-05-19T20:54:36.300Z,94104.00
2019-05-19T20:57:06.991Z,94111.00
2019-05-19T20:59:40.755Z,94112.00
2019-05-19T21:02:11.649Z,94106.00
2019-05-19T21:04:42.265Z,94122.00
2019-05-19T21:07:12.877Z,94134.00
2019-05-19T21:09:43.384Z,94128.00
2019-05-19T21:12:14.089Z,94133.00
2019-05-19T21:14:44.890Z,94132.00
2019-05-19T21:17:17.626Z,94120.00
2019-05-19T21:19:49.700Z,94127.00
2019-05-19T21:22:20.179Z,94134.00
2019-05-19T21:24:51.049Z,94123.00
2019-05-19T21:27:23.423Z,94128.00
2019-05-19T21:29:54.101Z,94123.00
2019-05-19T21:32:25.083Z,94116.00
2019-05-19T21:34:56.233Z,94116.00
2019-05-19T21:37:26.772Z,94102.00
2019-05-19T21:39:57.332Z,94105.00
2019-05-19T21:42:28.303Z,94099.00
2019-05-19T21:44:58.805Z,94097.00
2019-05-19T21:47:29.441Z,94091.00
2019-05-19T21:50:00.308Z,94084.00
2019-05-19T21:52:30.852Z,94072.00
2019-05-19T21:55:01.387Z,94068.00
2019-05-19T21:57:31.915Z,94060.00
2019-05-19T22:00:02.555Z,94060.00
2019-05-19T22:02:33.057Z,94056.00
2019-05-19T22:05:03.794Z,94057.00
2019-05-19T22:07:43.394Z,94054.00
2019-05-19T22:10:14.217Z,94043.00
2019-05-19T22:12:44.877Z,94034.00
2019-05-19T22:15:15.663Z,94044.00
2019-05-19T22:17:46.507Z,94041.00
2019-05-19T22:20:17.101Z,94045.00
2019-05-19T22:22:48.745Z,94052.00
2019-05-19T22:25:19.205Z,94044.00
2019-05-19T22:27:49.718Z,94053.00
2019-05-19T22:30:20.225Z,94056.00
2019-05-19T22:32:51.012Z,94048.00
2019-05-19T22:35:21.828Z,94057.00
2019-05-19T22:37:52.502Z,94054.00
2019-05-19T22:40:23.134Z,94064.00
2019-05-19T22:42:53.787Z,94061.00
2019-05-19T22:45:24.306Z,94065.00
2019-05-19T22:47:55.018Z,94064.00
2019-05-19T22:50:25.598Z,94071.00
2019-05-19T22:52:56.096Z,94080.00
2019-05-19T22:55:26.577Z,94070.00
2019-05-19T22:57:57.073Z,94082.00
2019-05-19T23:00:28.036Z,94079.00
2019-05-19T23:02:58.519Z,94082.00
2019-05-19T23:05:28.989Z,94074.00
2019-05-19T23:08:00.924Z,94081.00
2019-05-19T23:10:31.441Z,94079.00
2019-05-19T23:13:01.948Z,94084.00
2019-05-19T23:15:32.646Z,94085.00
2019-05-19T23:18:04.305Z,94084.00
2019-05-19T23:20:36.437Z,94077.00
2019-05-19T23:23:06.992Z,94076.00
2019-05-19T23:25:39.032Z,94071.00
2019-05-19T23:28:09.530Z,94079.00
2019-05-19T23:30:40.032Z,94082.00
2019-05-19T23:33:10.530Z,94083.00
2019-05-19T23:35:41.076Z,94075.00
2019-05-19T23:38:11.605Z,94080.00
2019-05-19T23:40:42.137Z,94079.00
2019-05-19T23:43:12.674Z,94082.00
2019-05-19T23:45:43.344Z,94089.00
2019-05-19T23:48:13.927Z,94077.00
2019-05-19T23:50:44.502Z,94084.00
2019-05-19T23:53:15.278Z,94084.00
2019-05-19T23:55:46.056Z,94091.00
2019-05-19T23:58:16.546Z,94088.00
